Time;durP1;ratioP1;P1;durP2;ratioP2;P2;SDS_P1;SDS_P2;PMS_P1;PMS_P2;Temp;Humidity;BMP_temperature;BMP_pressure;BME280_temperature;BME280_humidity;BME280_pressure;Samples;Min_cycle;Max_cycle;Signal;HPM_P1;HPM_P2
2023/05/29 00:02:17;;;;;;;1.42;1.33;;;19.70;43.80;;;;;;5125788;27;20171;-81
2023/05/29 00:04:42;;;;;;;1.30;1.20;;;19.70;43.70;;;;;;5144697;27;20159;-80
2023/05/29 00:07:09;;;;;;;1.13;1.02;;;19.70;43.70;;;;;;5125502;27;20160;-80
2023/05/29 00:09:34;;;;;;;1.20;1.02;;;19.70;43.80;;;;;;5125778;27;20163;-81
2023/05/29 00:12:02;;;;;;;1.30;1.20;;;19.70;43.70;;;;;;5143540;27;20191;-81
2023/05/29 00:14:30;;;;;;;1.45;1.20;;;19.70;43.70;;;;;;5126001;27;20175;-81
2023/05/29 00:16:56;;;;;;;1.30;1.20;;;19.70;43.70;;;;;;5125605;27;20147;-80
2023/05/29 00:19:23;;;;;;;1.20;1.10;;;19.70;43.70;;;;;;5143348;27;20159;-81
2023/05/29 00:21:49;;;;;;;1.30;1.20;;;19.70;43.70;;;;;;5125084;27;20234;-80
2023/05/29 00:24:15;;;;;;;1.10;1.00;;;19.70;43.70;;;;;;5125165;27;20201;-83
2023/05/29 00:26:42;;;;;;;1.17;1.08;;;19.70;43.70;;;;;;5124665;27;20144;-81
2023/05/29 00:29:09;;;;;;;1.25;1.00;;;19.70;43.60;;;;;;5124734;27;20215;-80
2023/05/29 00:31:37;;;;;;;1.23;1.05;;;19.70;43.60;;;;;;5142692;27;20158;-83
2023/05/29 00:34:03;;;;;;;1.30;1.20;;;19.70;43.70;;;;;;5125425;27;20187;-81
2023/05/29 00:36:29;;;;;;;1.17;1.08;;;19.70;43.50;;;;;;5143539;27;20148;-81
2023/05/29 00:38:55;;;;;;;2.92;1.05;;;19.70;43.50;;;;;;5124476;27;20173;-81
2023/05/29 00:41:21;;;;;;;1.08;0.98;;;19.70;43.60;;;;;;5124678;27;20207;-80
2023/05/29 00:43:46;;;;;;;1.35;1.25;;;19.70;43.50;;;;;;5124487;27;20162;-81
2023/05/29 00:46:14;;;;;;;0.93;0.93;;;19.70;43.50;;;;;;5124041;27;20160;-81
2023/05/29 00:48:41;;;;;;;1.35;1.25;;;19.70;43.60;;;;;;5124322;27;20148;-80
2023/05/29 00:51:06;;;;;;;1.23;1.13;;;19.70;43.60;;;;;;5107331;27;20644;-82
2023/05/29 00:53:32;;;;;;;1.23;1.08;;;19.70;43.60;;;;;;5142276;27;20187;-81
2023/05/29 00:55:58;;;;;;;1.58;1.30;;;19.70;43.60;;;;;;5107136;27;20163;-82
2023/05/29 00:58:25;;;;;;;1.48;1.30;;;19.70;43.60;;;;;;5142013;27;20175;-80
2023/05/29 01:00:52;;;;;;;1.20;1.10;;;19.70;43.60;;;;;;5123691;27;20155;-80
2023/05/29 01:03:18;;;;;;;1.48;1.30;;;19.60;43.50;;;;;;5141625;27;20148;-81
2023/05/29 01:05:46;;;;;;;1.23;1.02;;;19.70;43.60;;;;;;5123949;27;20147;-81
2023/05/29 01:08:12;;;;;;;1.25;1.15;;;19.70;43.60;;;;;;5106432;27;20254;-81
2023/05/29 01:10:38;;;;;;;1.60;1.13;;;19.70;43.60;;;;;;5123075;27;20160;-82
2023/05/29 01:13:08;;;;;;;1.30;1.20;;;19.70;43.60;;;;;;5123470;27;20195;-81
2023/05/29 01:16:03;;;;;;;1.20;1.10;;;19.60;43.60;;;;;;5123136;27;20152;-81
2023/05/29 01:18:52;;;;;;;1.25;1.02;;;19.70;43.60;;;;;;5141910;27;20574;-80
2023/05/29 01:21:43;;;;;;;1.70;1.00;;;19.70;43.60;;;;;;5141632;27;20209;-80
2023/05/29 01:24:43;;;;;;;1.20;1.10;;;19.70;43.50;;;;;;5108609;27;20607;-82
2023/05/29 01:27:10;;;;;;;1.50;1.23;;;19.70;43.60;;;;;;5140860;27;20250;-81
2023/05/29 01:29:35;;;;;;;1.17;1.00;;;19.70;43.50;;;;;;5141653;27;20197;-80
2023/05/29 01:32:02;;;;;;;1.50;1.20;;;19.70;43.60;;;;;;5123768;27;20646;-81
2023/05/29 01:34:28;;;;;;;1.00;1.00;;;19.70;43.60;;;;;;5141479;27;20175;-80
2023/05/29 01:36:54;;;;;;;1.40;1.20;;;19.70;43.60;;;;;;5123296;27;20155;-81
2023/05/29 01:39:22;;;;;;;1.10;1.00;;;19.60;43.60;;;;;;5123217;27;20148;-81
2023/05/29 01:41:48;;;;;;;1.23;1.13;;;19.70;43.60;;;;;;5122815;27;20171;-80
2023/05/29 01:44:14;;;;;;;1.38;1.00;;;19.70;43.60;;;;;;5124001;27;20177;-80
2023/05/29 01:46:40;;;;;;;1.35;1.20;;;19.70;43.60;;;;;;5142662;27;20212;-81
2023/05/29 01:49:08;;;;;;;1.10;1.00;;;19.70;43.60;;;;;;5123567;27;20155;-80
2023/05/29 01:51:35;;;;;;;1.33;1.23;;;19.70;43.70;;;;;;5141644;27;20614;-83
2023/05/29 01:54:00;;;;;;;1.13;1.02;;;19.70;43.60;;;;;;5123405;27;20191;-81
2023/05/29 01:56:27;;;;;;;1.67;1.23;;;19.60;43.60;;;;;;5123267;27;20501;-80
2023/05/29 01:58:55;;;;;;;1.10;1.00;;;19.70;43.70;;;;;;5123478;28;20175;-81
2023/05/29 02:01:22;;;;;;;1.20;1.10;;;19.70;43.70;;;;;;5123178;27;20155;-80
2023/05/29 02:03:48;;;;;;;1.23;1.08;;;19.60;43.60;;;;;;5123071;28;20181;-82
2023/05/29 02:06:13;;;;;;;1.13;1.02;;;19.60;43.60;;;;;;5106695;28;20163;-80
2023/05/29 02:08:40;;;;;;;1.23;1.13;;;19.60;43.70;;;;;;5123256;27;20234;-81
2023/05/29 02:11:06;;;;;;;1.98;1.17;;;19.60;43.60;;;;;;5106129;27;20175;-80
2023/05/29 02:13:32;;;;;;;1.17;1.08;;;19.60;43.70;;;;;;5123257;28;20220;-81
2023/05/29 02:15:58;;;;;;;1.05;0.95;;;19.60;43.60;;;;;;5122951;27;20155;-81
2023/05/29 02:18:23;;;;;;;1.45;1.25;;;19.60;43.60;;;;;;5141051;27;20183;-82
2023/05/29 02:20:49;;;;;;;1.30;1.20;;;19.60;43.60;;;;;;5123421;28;20171;-81
2023/05/29 02:23:15;;;;;;;1.30;1.20;;;19.60;43.70;;;;;;5123408;28;20160;-80
2023/05/29 02:25:41;;;;;;;1.40;1.00;;;19.60;43.70;;;;;;5119566;28;20168;-83
2023/05/29 02:28:07;;;;;;;2.10;1.30;;;19.70;43.70;;;;;;5094205;28;20212;-84
2023/05/29 02:30:32;;;;;;;1.20;1.10;;;19.60;43.70;;;;;;5078514;28;20180;-82
2023/05/29 02:32:58;;;;;;;1.13;1.00;;;19.60;43.70;;;;;;5078586;28;20192;-83
2023/05/29 02:35:24;;;;;;;1.15;0.95;;;19.60;43.70;;;;;;5078932;28;20530;-83
2023/05/29 02:37:50;;;;;;;1.33;1.23;;;19.60;43.70;;;;;;5094716;28;20160;-82
2023/05/29 02:40:16;;;;;;;1.30;1.17;;;19.60;43.70;;;;;;5078012;28;20199;-82
2023/05/29 02:42:42;;;;;;;1.20;1.10;;;19.60;43.70;;;;;;5078137;28;20214;-82
2023/05/29 02:45:08;;;;;;;1.35;1.25;;;19.60;43.70;;;;;;5079059;28;20252;-82
2023/05/29 02:47:34;;;;;;;1.40;1.30;;;19.60;43.80;;;;;;5095623;28;20168;-83
2023/05/29 02:50:00;;;;;;;1.30;1.15;;;19.60;43.70;;;;;;5078069;28;20255;-81
2023/05/29 02:52:27;;;;;;;1.30;1.10;;;19.60;43.70;;;;;;5096740;28;20219;-82
2023/05/29 02:54:54;;;;;;;1.17;1.00;;;19.60;43.70;;;;;;5081359;28;20184;-82
2023/05/29 02:57:20;;;;;;;1.30;1.20;;;19.60;43.70;;;;;;5099740;28;20156;-82
2023/05/29 02:59:46;;;;;;;1.35;1.13;;;19.60;43.70;;;;;;5099295;28;20171;-82
2023/05/29 03:02:12;;;;;;;1.20;1.10;;;19.60;43.70;;;;;;5099403;28;20189;-82
2023/05/29 03:04:37;;;;;;;1.50;1.17;;;19.60;43.70;;;;;;5082306;28;20164;-83
2023/05/29 03:07:03;;;;;;;1.70;1.30;;;19.60;43.70;;;;;;5099020;28;20530;-82
2023/05/29 03:09:30;;;;;;;1.20;1.10;;;19.60;43.70;;;;;;5098960;28;20175;-82
2023/05/29 03:11:56;;;;;;;1.05;0.95;;;19.60;43.70;;;;;;5100142;28;20161;-83
2023/05/29 03:14:21;;;;;;;0.88;0.80;;;19.60;43.70;;;;;;5099878;28;20650;-82
2023/05/29 03:16:49;;;;;;;1.10;1.00;;;19.60;43.70;;;;;;5099950;28;20519;-82
2023/05/29 03:19:15;;;;;;;1.10;1.00;;;19.60;43.70;;;;;;5082013;28;20157;-82
2023/05/29 03:21:41;;;;;;;1.23;1.10;;;19.60;43.70;;;;;;5098313;28;20145;-82
2023/05/29 03:24:07;;;;;;;1.20;1.10;;;19.60;43.80;;;;;;5100076;28;20153;-82
2023/05/29 03:26:33;;;;;;;1.02;0.93;;;19.60;43.80;;;;;;5098283;28;20164;-82
2023/05/29 03:28:58;;;;;;;1.42;1.10;;;19.60;43.80;;;;;;5092847;28;20269;-81
2023/05/29 03:31:24;;;;;;;1.27;1.10;;;19.60;43.80;;;;;;5118936;28;20650;-82
2023/05/29 03:33:49;;;;;;;1.35;1.20;;;19.60;43.80;;;;;;5119443;28;20184;-82
2023/05/29 03:36:18;;;;;;;1.25;1.00;;;19.60;43.80;;;;;;5118274;28;20162;-82
2023/05/29 03:38:44;;;;;;;1.27;1.17;;;19.60;43.70;;;;;;5118375;28;20141;-83
2023/05/29 03:41:10;;;;;;;1.33;1.10;;;19.60;43.70;;;;;;5117678;28;20159;-82
2023/05/29 03:43:36;;;;;;;1.38;1.10;;;19.70;43.60;;;;;;5100712;28;20172;-82
2023/05/29 03:46:02;;;;;;;1.30;1.20;;;19.70;43.60;;;;;;5117473;28;20630;-81
2023/05/29 03:48:27;;;;;;;1.23;1.13;;;19.70;43.60;;;;;;5117504;28;20205;-82
2023/05/29 03:50:53;;;;;;;0.82;0.80;;;19.70;43.50;;;;;;5118277;28;20622;-82
2023/05/29 03:53:19;;;;;;;1.20;1.10;;;19.70;43.50;;;;;;5118481;28;20187;-83
2023/05/29 03:55:44;;;;;;;0.80;0.80;;;19.80;43.50;;;;;;5099829;28;20184;-82
2023/05/29 03:58:12;;;;;;;1.30;1.20;;;19.80;43.40;;;;;;5100406;28;20170;-83
2023/05/29 04:00:38;;;;;;;1.17;1.00;;;19.70;43.30;;;;;;5118274;27;20189;-83
2023/05/29 04:03:04;;;;;;;1.23;1.13;;;19.80;43.40;;;;;;5117133;27;20153;-82
2023/05/29 04:05:30;;;;;;;1.20;1.10;;;19.80;43.30;;;;;;5116728;28;20652;-83
2023/05/29 04:07:56;;;;;;;1.30;1.17;;;19.80;43.30;;;;;;5117894;28;20323;-83
2023/05/29 04:10:22;;;;;;;1.65;1.20;;;19.80;43.30;;;;;;5116375;28;20599;-82
2023/05/29 04:12:47;;;;;;;1.20;1.10;;;19.80;43.30;;;;;;5116536;28;20272;-82
2023/05/29 04:15:13;;;;;;;1.20;1.10;;;19.90;43.30;;;;;;5099375;28;20554;-82
2023/05/29 04:17:39;;;;;;;1.48;1.20;;;19.90;43.20;;;;;;5116746;28;20200;-82
2023/05/29 04:20:08;;;;;;;1.73;1.02;;;19.90;43.20;;;;;;5117518;28;20156;-83
2023/05/29 04:22:36;;;;;;;1.20;1.10;;;19.90;43.20;;;;;;5116284;28;20589;-82
2023/05/29 04:25:03;;;;;;;1.27;1.17;;;19.90;43.20;;;;;;5116139;28;20239;-82
2023/05/29 04:27:29;;;;;;;1.15;1.05;;;19.90;43.20;;;;;;5115953;28;20152;-82
2023/05/29 04:29:55;;;;;;;1.35;1.10;;;19.90;43.20;;;;;;5116083;27;20238;-83
2023/05/29 04:32:21;;;;;;;1.17;1.08;;;19.90;43.20;;;;;;5116192;28;20219;-83
2023/05/29 04:34:47;;;;;;;1.10;1.00;;;19.90;43.10;;;;;;5115669;28;20243;-83
2023/05/29 04:37:13;;;;;;;1.25;1.10;;;20.00;43.10;;;;;;5098723;28;20172;-82
2023/05/29 04:39:40;;;;;;;1.83;1.35;;;20.00;43.10;;;;;;5116937;28;20157;-82
2023/05/29 04:42:06;;;;;;;1.30;1.15;;;20.00;43.00;;;;;;5098412;28;20172;-83
2023/05/29 04:44:32;;;;;;;1.35;1.25;;;20.00;43.00;;;;;;5098794;28;20167;-82
2023/05/29 04:46:58;;;;;;;1.30;1.02;;;20.00;42.90;;;;;;5115617;28;20152;-83
2023/05/29 04:49:24;;;;;;;1.40;1.30;;;20.10;42.90;;;;;;5116825;28;20527;-84
2023/05/29 04:51:52;;;;;;;1.10;1.00;;;20.10;42.80;;;;;;5116805;28;20554;-82
2023/05/29 04:54:19;;;;;;;1.30;1.20;;;20.10;42.90;;;;;;5098485;28;20630;-82
2023/05/29 04:56:46;;;;;;;1.10;1.00;;;20.10;42.80;;;;;;5116544;28;20152;-83
2023/05/29 04:59:12;;;;;;;1.13;1.02;;;20.00;42.80;;;;;;5098848;28;20168;-82
2023/05/29 05:01:37;;;;;;;1.83;0.98;;;20.10;42.80;;;;;;5115217;28;20595;-83
2023/05/29 05:04:03;;;;;;;1.30;1.02;;;20.10;42.70;;;;;;5115085;28;20685;-83
2023/05/29 05:06:29;;;;;;;1.10;1.00;;;20.10;42.70;;;;;;5098160;28;20213;-83
2023/05/29 05:08:56;;;;;;;1.50;1.10;;;20.20;42.70;;;;;;5098463;28;20515;-83
2023/05/29 05:11:23;;;;;;;1.42;1.15;;;20.10;43.30;;;;;;5115144;28;20179;-82
2023/05/29 05:13:48;;;;;;;1.33;1.15;;;20.10;42.60;;;;;;5114659;28;20188;-83
2023/05/29 05:16:14;;;;;;;1.25;1.15;;;20.20;42.70;;;;;;5114410;28;20622;-83
2023/05/29 05:18:40;;;;;;;1.52;1.30;;;20.10;42.70;;;;;;5114635;27;20152;-82
2023/05/29 05:21:06;;;;;;;1.20;1.10;;;20.10;42.70;;;;;;5098105;28;20266;-82
2023/05/29 05:23:32;;;;;;;0.90;0.90;;;20.10;42.70;;;;;;5097803;28;20164;-82
2023/05/29 05:25:57;;;;;;;1.15;1.05;;;20.20;42.60;;;;;;5097905;28;20206;-82
2023/05/29 05:28:23;;;;;;;1.40;1.00;;;20.20;42.50;;;;;;5097330;28;20235;-83
2023/05/29 05:30:49;;;;;;;1.20;1.10;;;20.20;42.50;;;;;;5097704;28;20160;-83
2023/05/29 05:33:16;;;;;;;1.13;1.02;;;20.10;42.50;;;;;;5114141;28;20215;-82
2023/05/29 05:35:41;;;;;;;1.13;1.02;;;20.20;42.50;;;;;;5114286;28;20160;-83
2023/05/29 05:38:07;;;;;;;1.40;1.20;;;20.30;42.60;;;;;;5114375;28;20521;-82
2023/05/29 05:40:33;;;;;;;1.17;1.08;;;20.20;42.50;;;;;;5114248;28;20168;-82
2023/05/29 05:42:59;;;;;;;1.20;1.02;;;20.20;42.50;;;;;;5097586;28;20168;-82
2023/05/29 05:45:25;;;;;;;1.45;1.00;;;20.30;42.50;;;;;;5097783;28;20190;-82
2023/05/29 05:47:51;;;;;;;1.00;0.90;;;20.20;42.30;;;;;;5106821;28;20573;-82
2023/05/29 05:50:16;;;;;;;1.20;1.10;;;20.20;42.50;;;;;;5095301;28;20203;-83
2023/05/29 05:52:42;;;;;;;1.30;1.13;;;20.20;42.50;;;;;;5091359;28;20295;-82
2023/05/29 05:55:08;;;;;;;1.20;1.10;;;20.30;42.40;;;;;;5095130;28;20148;-82
2023/05/29 05:57:35;;;;;;;1.02;0.93;;;20.30;42.40;;;;;;5095128;28;20153;-82
2023/05/29 06:00:07;;;;;;;1.20;1.10;;;20.30;42.40;;;;;;5078986;28;20157;-82
2023/05/29 06:02:33;;;;;;;1.65;1.00;;;20.30;42.50;;;;;;5094589;28;20521;-83
2023/05/29 06:05:00;;;;;;;0.93;0.88;;;20.30;42.60;;;;;;5095442;28;20168;-83
2023/05/29 06:07:25;;;;;;;1.20;1.10;;;20.30;42.60;;;;;;5095723;28;20164;-83
2023/05/29 06:09:51;;;;;;;1.20;0.90;;;20.30;42.60;;;;;;5078305;28;20160;-82
2023/05/29 06:12:17;;;;;;;3.13;1.27;;;20.40;42.30;;;;;;5095499;28;20676;-83
2023/05/29 06:14:42;;;;;;;1.20;1.00;;;20.40;42.40;;;;;;5099052;28;20160;-86
2023/05/29 06:17:08;;;;;;;1.52;1.00;;;20.40;42.30;;;;;;5100977;28;20273;-83
2023/05/29 06:19:33;;;;;;;1.20;1.10;;;20.40;42.40;;;;;;5100173;28;20190;-83
2023/05/29 06:21:59;;;;;;;1.10;1.00;;;20.40;42.30;;;;;;5100980;28;20174;-83
2023/05/29 06:24:25;;;;;;;1.40;1.10;;;20.40;42.30;;;;;;5100257;28;20214;-83
2023/05/29 06:26:52;;;;;;;1.20;1.10;;;20.50;42.20;;;;;;5099796;28;20173;-83
2023/05/29 06:29:17;;;;;;;1.38;1.05;;;20.50;42.20;;;;;;5117325;28;20207;-83
2023/05/29 06:31:43;;;;;;;1.45;1.10;;;20.50;42.30;;;;;;5125268;28;20202;-84
2023/05/29 06:34:09;;;;;;;1.30;1.20;;;20.40;42.40;;;;;;5102140;28;20565;-83
2023/05/29 06:36:34;;;;;;;1.13;1.02;;;20.40;42.40;;;;;;5119052;28;20660;-83
2023/05/29 06:39:01;;;;;;;1.45;1.05;;;20.40;42.40;;;;;;5102682;28;20188;-83
2023/05/29 06:41:28;;;;;;;2.15;0.95;;;20.40;42.40;;;;;;5125542;28;20148;-83
2023/05/29 06:43:53;;;;;;;1.35;1.25;;;20.30;42.50;;;;;;5123352;28;20177;-83
2023/05/29 06:46:19;;;;;;;1.10;1.00;;;20.20;42.50;;;;;;5123110;28;20156;-83
2023/05/29 06:48:45;;;;;;;1.50;1.10;;;20.00;42.60;;;;;;5124163;28;20164;-83
2023/05/29 06:51:11;;;;;;;0.80;0.80;;;20.00;42.70;;;;;;5125787;28;20167;-84
2023/05/29 06:53:39;;;;;;;1.20;1.05;;;20.10;42.80;;;;;;5112514;28;20191;-83
2023/05/29 06:56:10;;;;;;;2.67;1.25;;;20.10;42.90;;;;;;5106542;28;20255;-83
2023/05/29 06:58:38;;;;;;;0.93;0.90;;;20.00;42.80;;;;;;5109477;28;20630;-84
2023/05/29 07:04:01;;;;;;;1.38;1.15;;;20.10;43.00;;;;;;5127168;28;20156;-83
2023/05/29 07:06:27;;;;;;;1.55;0.93;;;20.00;42.80;;;;;;5069605;28;20230;-83
2023/05/29 07:08:53;;;;;;;2.20;1.00;;;19.90;43.00;;;;;;5103052;28;20168;-84
2023/05/29 07:11:19;;;;;;;1.00;0.90;;;19.90;42.90;;;;;;5073533;28;20187;-83
2023/05/29 07:14:14;;;;;;;1.20;0.80;;;19.80;42.70;;;;;;5089977;28;20192;-82
2023/05/29 07:17:04;;;;;;;1.00;0.90;;;19.80;42.80;;;;;;5031579;28;20177;-83
2023/05/29 07:20:14;;;;;;;3.08;0.98;;;19.80;42.60;;;;;;4964031;29;20192;-83
2023/05/29 07:22:42;;;;;;;1.33;1.00;;;19.80;42.80;;;;;;4874164;29;20219;-82
2023/05/29 07:25:08;;;;;;;2.22;0.93;;;19.70;42.80;;;;;;4889226;29;20195;-83
2023/05/29 07:27:36;;;;;;;1.27;0.70;;;19.70;42.70;;;;;;4857576;29;20194;-83
2023/05/29 07:30:02;;;;;;;1.10;1.00;;;19.70;42.80;;;;;;4856216;29;20219;-83
2023/05/29 07:32:38;;;;;;;0.85;0.85;;;19.60;42.90;;;;;;4886722;29;20643;-82
2023/05/29 07:35:05;;;;;;;0.80;0.80;;;19.60;43.00;;;;;;4888247;29;20179;-83
2023/05/29 07:38:13;;;;;;;;;;;;;;;;;;;;;
2023/05/29 07:40:51;;;;;;;1.80;0.75;;;19.60;42.90;;;;;;4822610;29;20193;-83
2023/05/29 07:43:16;;;;;;;1.73;0.65;;;19.60;42.70;;;;;;4875788;29;20226;-83
2023/05/29 07:46:00;;;;;;;0.95;0.85;;;19.60;42.90;;;;;;4905690;29;20182;-82
2023/05/29 07:48:25;;;;;;;1.60;1.08;;;19.70;42.80;;;;;;4908628;29;20187;-82
2023/05/29 07:51:00;;;;;;;0.95;0.80;;;19.70;42.60;;;;;;4945874;29;20200;-82
2023/05/29 07:53:27;;;;;;;0.95;0.68;;;19.70;42.50;;;;;;4925471;29;20213;-81
2023/05/29 07:56:22;;;;;;;1.38;0.70;;;19.70;42.50;;;;;;4900055;29;20592;-80
2023/05/29 07:58:49;;;;;;;1.45;0.88;;;19.70;42.40;;;;;;4994880;28;20184;-80
2023/05/29 08:01:14;;;;;;;1.05;0.80;;;19.80;42.50;;;;;;5005913;28;20245;-81
2023/05/29 08:03:44;;;;;;;1.20;0.70;;;19.90;42.10;;;;;;5035215;28;20181;-82
2023/05/29 08:06:36;;;;;;;0.85;0.70;;;20.00;42.00;;;;;;5085940;28;20165;-80
2023/05/29 08:09:03;;;;;;;0.98;0.70;;;20.00;41.70;;;;;;5085885;28;20150;-80
2023/05/29 08:11:45;;;;;;;1.38;0.80;;;20.00;41.50;;;;;;5067803;28;20280;-81
2023/05/29 08:14:12;;;;;;;1.25;0.85;;;20.10;41.40;;;;;;5067946;28;20193;-81
2023/05/29 08:16:41;;;;;;;1.25;0.80;;;20.10;41.40;;;;;;5066153;28;20173;-82
2023/05/29 08:19:07;;;;;;;1.48;0.80;;;20.00;41.90;;;;;;5066313;28;20212;-81
2023/05/29 08:21:38;;;;;;;2.80;0.90;;;20.00;41.20;;;;;;5064284;28;20586;-84
2023/05/29 08:24:07;;;;;;;2.33;1.00;;;20.00;41.30;;;;;;5061860;28;20189;-81
2023/05/29 08:26:39;;;;;;;1.88;0.70;;;20.00;40.90;;;;;;5063816;28;20177;-81
2023/05/29 08:29:10;;;;;;;1.08;0.77;;;20.10;41.00;;;;;;5065449;28;20549;-81
2023/05/29 08:31:39;;;;;;;1.05;0.75;;;20.20;41.00;;;;;;5086451;27;20248;-82
2023/05/29 08:34:06;;;;;;;3.28;0.73;;;20.10;40.90;;;;;;5123773;27;20222;-83
2023/05/29 08:36:33;;;;;;;2.25;0.70;;;20.10;40.90;;;;;;5139713;27;20152;-84
2023/05/29 08:39:01;;;;;;;1.73;0.90;;;20.10;40.90;;;;;;5105336;27;20174;-82
2023/05/29 08:41:57;;;;;;;1.35;0.80;;;20.20;40.80;;;;;;5124189;27;20151;-83
2023/05/29 08:44:25;;;;;;;3.47;0.90;;;20.20;40.90;;;;;;5107365;27;20155;-83
2023/05/29 08:47:00;;;;;;;1.25;0.60;;;20.10;40.90;;;;;;5122783;27;20155;-83
2023/05/29 08:49:29;;;;;;;1.20;0.98;;;20.10;40.70;;;;;;5107320;27;20155;-83
2023/05/29 08:52:05;;;;;;;1.23;0.90;;;20.10;41.10;;;;;;5123466;27;20159;-83
2023/05/29 08:55:07;;;;;;;;;;;;;;;;;;;;;
2023/05/29 08:57:52;;;;;;;1.33;0.75;;;20.00;41.00;;;;;;5018040;28;20709;-85
2023/05/29 09:00:42;;;;;;;0.73;0.63;;;19.90;40.80;;;;;;5000632;28;20597;-81
2023/05/29 09:03:57;;;;;;;1.80;0.50;;;19.90;41.20;;;;;;4991680;28;20179;-82
2023/05/29 09:06:23;;;;;;;2.10;0.60;;;20.00;40.90;;;;;;5004769;28;20179;-84
2023/05/29 09:09:01;;;;;;;2.17;0.68;;;19.90;40.80;;;;;;4972320;28;20605;-84
2023/05/29 09:12:28;;;;;;;;;;;;;;;;;;;;;
2023/05/29 09:15:09;;;;;;;1.58;0.88;;;19.90;41.20;;;;;;4947022;29;20279;-83
2023/05/29 09:18:14;;;;;;;0.85;0.60;;;19.90;41.10;;;;;;4998715;28;20176;-84
2023/05/29 09:20:39;;;;;;;1.33;0.80;;;19.90;41.10;;;;;;5000127;28;20176;-85
2023/05/29 09:23:17;;;;;;;;;;;;;;;;;;;;;
2023/05/29 09:25:46;;;;;;;3.38;0.85;;;19.90;40.90;;;;;;4983361;28;20341;-82
2023/05/29 09:28:20;;;;;;;1.42;0.70;;;20.00;40.60;;;;;;4967136;28;20731;-81
2023/05/29 09:30:47;;;;;;;0.82;0.57;;;20.10;40.70;;;;;;4929668;29;20225;-81
2023/05/29 09:33:14;;;;;;;1.90;0.80;;;20.10;40.50;;;;;;4948921;28;20218;-82
2023/05/29 09:35:45;;;;;;;1.85;0.50;;;20.00;40.50;;;;;;4969253;28;20185;-80
2023/05/29 09:38:16;;;;;;;1.10;0.80;;;20.00;40.40;;;;;;4985921;28;20282;-81
2023/05/29 09:40:46;;;;;;;6.70;0.80;;;20.10;40.40;;;;;;4984000;28;20184;-81
2023/05/29 09:43:16;;;;;;;3.05;0.63;;;20.10;40.20;;;;;;4983312;28;20188;-81
2023/05/29 09:45:44;;;;;;;1.35;0.60;;;20.10;40.30;;;;;;4984063;28;20251;-82
2023/05/29 09:48:13;;;;;;;1.50;0.70;;;20.20;40.10;;;;;;4947163;29;20245;-81
2023/05/29 09:50:42;;;;;;;2.25;0.65;;;20.30;40.10;;;;;;4946184;29;20240;-82
2023/05/29 09:53:20;;;;;;;2.78;0.80;;;20.20;40.00;;;;;;4932343;29;20220;-81
2023/05/29 09:55:48;;;;;;;2.25;0.90;;;20.20;40.00;;;;;;4997326;28;20736;-82
2023/05/29 09:58:15;;;;;;;2.92;0.70;;;20.30;39.90;;;;;;5049700;28;20165;-82
2023/05/29 10:00:47;;;;;;;2.05;0.82;;;20.20;40.10;;;;;;5033839;28;20181;-81
2023/05/29 10:03:16;;;;;;;4.20;0.85;;;20.20;40.30;;;;;;5048159;28;20531;-81
2023/05/29 10:05:46;;;;;;;1.65;0.60;;;20.10;40.40;;;;;;5030815;28;20181;-82
2023/05/29 10:08:17;;;;;;;1.27;0.70;;;20.20;40.30;;;;;;5031741;28;20240;-84
2023/05/29 10:10:46;;;;;;;2.03;0.77;;;20.10;40.30;;;;;;5021230;28;20175;-83
2023/05/29 10:13:13;;;;;;;0.88;0.70;;;20.20;40.10;;;;;;5020220;28;20229;-81
2023/05/29 10:15:41;;;;;;;1.20;0.60;;;20.20;40.10;;;;;;5022151;28;20156;-81
2023/05/29 10:18:28;;;;;;;1.08;0.90;;;20.20;40.00;;;;;;5023920;28;20259;-80
2023/05/29 10:20:58;;;;;;;1.02;0.60;;;20.20;40.10;;;;;;5023334;28;20152;-80
2023/05/29 10:23:29;;;;;;;1.45;0.70;;;20.20;39.90;;;;;;5023648;28;20214;-81
2023/05/29 10:26:13;;;;;;;2.25;0.80;;;20.30;39.90;;;;;;5046189;28;20184;-83
2023/05/29 10:28:41;;;;;;;1.42;0.60;;;20.20;39.90;;;;;;5065568;28;20181;-79
2023/05/29 10:31:11;;;;;;;0.70;0.60;;;20.20;39.90;;;;;;5049364;28;20212;-80
2023/05/29 10:33:49;;;;;;;1.23;0.70;;;20.20;40.00;;;;;;5066989;28;20189;-80
2023/05/29 10:36:23;;;;;;;0.90;0.75;;;20.20;39.80;;;;;;5051245;28;20659;-81
2023/05/29 10:38:49;;;;;;;0.95;0.57;;;20.30;39.90;;;;;;5050643;28;20177;-81
2023/05/29 10:41:32;;;;;;;2.05;0.70;;;20.20;39.70;;;;;;5048613;28;20165;-81
2023/05/29 10:43:59;;;;;;;1.30;0.50;;;20.20;39.90;;;;;;5052049;28;20244;-80
2023/05/29 10:47:01;;;;;;;1.73;0.60;;;20.20;39.90;;;;;;5050256;28;20169;-80
2023/05/29 10:49:29;;;;;;;1.30;0.65;;;20.20;39.90;;;;;;5070281;28;20267;-80
2023/05/29 10:51:55;;;;;;;2.38;0.73;;;20.30;39.60;;;;;;5050595;28;20150;-80
2023/05/29 10:54:22;;;;;;;1.13;0.63;;;20.30;39.60;;;;;;5065153;28;20204;-80
2023/05/29 10:56:56;;;;;;;0.57;0.50;;;20.30;40.00;;;;;;5050881;28;20643;-80
2023/05/29 10:59:26;;;;;;;1.85;0.63;;;20.30;39.60;;;;;;5051430;28;20262;-80
2023/05/29 11:01:53;;;;;;;1.25;0.73;;;20.30;39.50;;;;;;5051388;28;20225;-80
2023/05/29 11:04:30;;;;;;;1.08;0.57;;;20.30;39.50;;;;;;5050696;28;20216;-80
2023/05/29 11:06:59;;;;;;;1.15;0.60;;;20.30;39.60;;;;;;5060185;28;20200;-79
2023/05/29 11:09:34;;;;;;;1.17;0.50;;;20.30;39.60;;;;;;5104852;28;20685;-80
2023/05/29 11:15:09;;;;;;;2.47;0.90;;;20.30;39.30;;;;;;5107021;28;20149;-80
2023/05/29 11:17:43;;;;;;;0.60;0.55;;;20.40;40.00;;;;;;5108444;28;20161;-79
2023/05/29 11:20:35;;;;;;;0.60;0.52;;;20.40;39.30;;;;;;5109011;28;20148;-80
2023/05/29 11:23:07;;;;;;;0.88;0.70;;;20.30;39.20;;;;;;5091081;28;20264;-79
2023/05/29 11:25:36;;;;;;;1.85;0.75;;;20.40;39.20;;;;;;5108687;28;20212;-80
2023/05/29 11:28:08;;;;;;;0.65;0.50;;;20.30;39.20;;;;;;5108216;28;20153;-79
2023/05/29 11:30:41;;;;;;;1.65;0.70;;;20.30;39.20;;;;;;5125721;28;20283;-79
2023/05/29 11:33:10;;;;;;;0.68;0.50;;;20.30;39.20;;;;;;5112151;28;20747;-79
2023/05/29 11:35:35;;;;;;;0.50;0.50;;;20.20;39.20;;;;;;5112772;28;20164;-79
2023/05/29 11:38:02;;;;;;;0.82;0.65;;;20.20;39.20;;;;;;5128641;28;20160;-79
2023/05/29 11:40:27;;;;;;;0.38;0.38;;;20.20;39.20;;;;;;5111260;28;20188;-79
2023/05/29 11:42:53;;;;;;;0.50;0.50;;;20.20;39.20;;;;;;5128300;27;20159;-79
2023/05/29 11:45:21;;;;;;;1.45;0.47;;;20.10;39.20;;;;;;5111993;28;20538;-79
2023/05/29 11:47:56;;;;;;;0.63;0.47;;;20.10;39.30;;;;;;5111982;28;20171;-80
2023/05/29 11:50:28;;;;;;;2.80;0.93;;;20.10;39.20;;;;;;5110701;28;20629;-80
2023/05/29 11:52:55;;;;;;;0.63;0.60;;;20.10;39.20;;;;;;5126865;28;20183;-79
2023/05/29 11:55:22;;;;;;;0.93;0.50;;;20.10;39.30;;;;;;5112073;28;20160;-79
2023/05/29 11:57:50;;;;;;;2.60;0.60;;;20.10;39.40;;;;;;5112368;28;20171;-80
2023/05/29 12:00:19;;;;;;;1.17;0.45;;;20.00;40.30;;;;;;5112051;28;20156;-79
2023/05/29 12:02:46;;;;;;;1.27;0.57;;;20.00;39.50;;;;;;5120830;28;20172;-80
2023/05/29 12:05:14;;;;;;;0.70;0.52;;;20.10;39.60;;;;;;5124294;28;20164;-79
2023/05/29 12:07:51;;;;;;;0.63;0.47;;;20.00;39.60;;;;;;5106292;28;20189;-80
2023/05/29 12:10:21;;;;;;;0.50;0.47;;;20.00;39.60;;;;;;5107523;28;20168;-80
2023/05/29 12:12:52;;;;;;;0.88;0.50;;;20.10;39.60;;;;;;5091210;28;20196;-80
2023/05/29 12:15:18;;;;;;;2.10;0.45;;;20.00;39.60;;;;;;5124728;28;20153;-80
2023/05/29 12:17:45;;;;;;;1.38;0.45;;;20.00;39.60;;;;;;5107538;28;20192;-80
2023/05/29 12:20:13;;;;;;;0.35;0.35;;;20.00;39.50;;;;;;5107644;28;20161;-79
2023/05/29 12:22:41;;;;;;;1.08;0.57;;;20.00;39.60;;;;;;5124975;28;20164;-80
2023/05/29 12:25:11;;;;;;;0.82;0.57;;;20.10;39.50;;;;;;5124893;28;20153;-79
2023/05/29 12:27:42;;;;;;;2.35;0.43;;;20.00;39.50;;;;;;5111133;28;20173;-79
2023/05/29 12:30:10;;;;;;;1.70;0.47;;;20.00;39.50;;;;;;5094299;28;20228;-79
2023/05/29 12:32:38;;;;;;;1.50;0.60;;;20.00;39.50;;;;;;5107153;28;20191;-83
2023/05/29 12:35:21;;;;;;;1.23;0.40;;;20.00;39.60;;;;;;5106319;28;20223;-83
2023/05/29 12:37:49;;;;;;;2.60;0.60;;;20.00;39.50;;;;;;5088540;28;20256;-83
2023/05/29 12:40:18;;;;;;;1.83;0.50;;;20.00;39.60;;;;;;5090023;28;20186;-83
2023/05/29 12:42:44;;;;;;;1.08;0.60;;;20.00;39.60;;;;;;5106711;28;20157;-83
2023/05/29 12:45:10;;;;;;;0.75;0.40;;;20.00;39.50;;;;;;5090534;28;20164;-83
2023/05/29 12:47:44;;;;;;;2.05;0.60;;;20.00;39.50;;;;;;5107024;28;20157;-82
2023/05/29 12:50:22;;;;;;;1.95;0.40;;;20.00;39.50;;;;;;5090063;28;20171;-81
2023/05/29 12:52:57;;;;;;;0.73;0.47;;;20.10;39.50;;;;;;5106581;28;20204;-82
2023/05/29 12:55:22;;;;;;;1.60;0.60;;;20.10;39.50;;;;;;5090394;28;20156;-82
2023/05/29 12:57:48;;;;;;;2.63;0.75;;;20.10;39.40;;;;;;5107171;28;20160;-82
2023/05/29 13:00:17;;;;;;;0.98;0.50;;;20.10;39.40;;;;;;5089741;28;20246;-82
2023/05/29 13:02:44;;;;;;;3.28;0.60;;;20.00;39.40;;;;;;5085783;28;20181;-83
2023/05/29 13:05:11;;;;;;;1.25;0.70;;;20.00;39.40;;;;;;5088645;28;20245;-82
2023/05/29 13:07:42;;;;;;;3.83;0.68;;;20.00;39.40;;;;;;5087088;28;20697;-79
2023/05/29 13:10:08;;;;;;;1.33;0.60;;;20.00;39.40;;;;;;5071246;28;20177;-79